createdAt,value
2023-02-28T00:01:34.917Z,1.30
2023-02-28T00:04:04.603Z,1.40
2023-02-28T00:06:32.522Z,1.30
2023-02-28T00:09:00.360Z,1.30
2023-02-28T00:11:28.539Z,1.30
2023-02-28T00:13:56.632Z,1.30
2023-02-28T00:16:25.032Z,1.20
2023-02-28T00:18:53.697Z,1.20
2023-02-28T00:21:23.166Z,1.20
2023-02-28T00:23:51.341Z,1.20
2023-02-28T00:26:21.726Z,1.20
2023-02-28T00:28:50.777Z,1.20
2023-02-28T00:31:18.923Z,1.20
2023-02-28T00:33:47.078Z,1.20
2023-02-28T00:36:16.572Z,1.10
2023-02-28T00:38:45.835Z,1.10
2023-02-28T00:41:13.723Z,1.10
2023-02-28T00:43:42.364Z,1.10
2023-02-28T00:46:12.645Z,1.10
2023-02-28T00:48:40.550Z,1.10
2023-02-28T00:51:08.446Z,1.00
2023-02-28T00:53:36.443Z,1.00
2023-02-28T00:56:06.290Z,1.10
2023-02-28T00:58:34.279Z,1.10
2023-02-28T01:01:02.453Z,1.10
2023-02-28T01:03:30.530Z,1.10
2023-02-28T01:05:58.606Z,1.10
2023-02-28T01:08:27.765Z,1.10
2023-02-28T01:10:56.050Z,1.10
2023-02-28T01:13:26.262Z,1.10
2023-02-28T01:15:56.775Z,1.10
2023-02-28T01:18:25.553Z,1.10
2023-02-28T01:20:53.676Z,1.10
2023-02-28T01:23:24.388Z,1.10
2023-02-28T01:25:52.920Z,1.10
2023-02-28T01:28:21.065Z,1.10
2023-02-28T01:30:52.610Z,1.10
2023-02-28T01:33:20.847Z,1.10
2023-02-28T01:35:48.778Z,1.10
2023-02-28T01:38:22.578Z,1.10
2023-02-28T01:40:52.003Z,1.10
2023-02-28T01:43:24.036Z,1.10
2023-02-28T01:45:54.301Z,1.00
2023-02-28T01:48:26.871Z,1.10
2023-02-28T01:50:57.261Z,1.10
2023-02-28T01:53:33.199Z,1.00
2023-02-28T01:56:01.307Z,1.00
2023-02-28T01:58:29.237Z,1.00
2023-02-28T02:01:01.273Z,1.00
2023-02-28T02:03:29.192Z,1.00
2023-02-28T02:05:57.108Z,1.00
2023-02-28T02:08:27.578Z,1.00
2023-02-28T02:10:58.801Z,1.00
2023-02-28T02:13:40.349Z,1.00
2023-02-28T02:16:21.971Z,1.10
2023-02-28T02:19:04.566Z,1.10
2023-02-28T02:22:21.017Z,1.20
2023-02-28T02:25:07.373Z,1.20
2023-02-28T02:27:55.960Z,1.10
2023-02-28T02:30:47.605Z,1.10
2023-02-28T02:33:54.479Z,1.00
2023-02-28T02:36:27.134Z,0.90
2023-02-28T02:39:04.146Z,0.80
2023-02-28T02:41:41.594Z,0.70
2023-02-28T02:44:16.698Z,0.70
2023-02-28T02:46:49.197Z,0.70
2023-02-28T02:49:22.335Z,0.70
2023-02-28T02:51:54.190Z,0.70
2023-02-28T02:54:29.654Z,0.60
2023-02-28T02:57:01.349Z,0.70
2023-02-28T02:59:32.168Z,0.70
2023-02-28T03:02:05.026Z,0.60
2023-02-28T03:04:37.144Z,0.60
2023-02-28T03:07:08.422Z,0.60
2023-02-28T03:09:37.478Z,0.60
2023-02-28T03:12:14.190Z,0.60
2023-02-28T03:14:57.911Z,0.70
2023-02-28T03:17:51.413Z,0.60
2023-02-28T03:20:32.422Z,0.60
2023-02-28T03:23:13.232Z,0.60
2023-02-28T03:25:54.077Z,0.60
2023-02-28T03:28:33.779Z,0.50
2023-02-28T03:31:05.665Z,0.50
2023-02-28T03:33:38.147Z,0.50
2023-02-28T03:36:10.240Z,0.50
2023-02-28T03:38:44.293Z,0.50
2023-02-28T03:41:17.992Z,0.50
2023-02-28T03:43:52.986Z,0.50
2023-02-28T03:46:26.390Z,0.50
2023-02-28T03:48:59.597Z,0.50
2023-02-28T03:51:29.209Z,0.50
2023-02-28T03:54:01.896Z,0.50
2023-02-28T03:56:36.092Z,0.50
2023-02-28T03:59:08.965Z,0.50
2023-02-28T04:01:42.116Z,0.60
2023-02-28T04:04:10.412Z,0.60
2023-02-28T04:06:38.919Z,0.60
2023-02-28T04:09:09.385Z,0.60
2023-02-28T04:11:39.541Z,0.60
2023-02-28T04:14:09.219Z,0.60
2023-02-28T04:16:41.925Z,0.60
2023-02-28T04:19:12.035Z,0.50
2023-02-28T04:21:41.605Z,0.50
2023-02-28T04:24:15.196Z,0.50
2023-02-28T04:26:45.742Z,0.50
2023-02-28T04:29:15.868Z,0.40
2023-02-28T04:31:43.793Z,0.40
2023-02-28T04:34:11.627Z,0.40
2023-02-28T04:36:39.487Z,0.40
2023-02-28T04:39:07.464Z,0.30
2023-02-28T04:41:36.853Z,0.30
2023-02-28T04:44:05.358Z,0.30
2023-02-28T04:46:33.254Z,0.30
2023-02-28T04:49:03.746Z,0.30
2023-02-28T04:51:31.932Z,0.30
2023-02-28T04:54:00.190Z,0.30
2023-02-28T04:56:28.271Z,0.30
2023-02-28T04:58:57.507Z,0.30
2023-02-28T05:01:28.273Z,0.30
2023-02-28T05:03:58.946Z,0.30
2023-02-28T05:06:29.034Z,0.30
2023-02-28T05:08:58.253Z,0.30
2023-02-28T05:11:30.349Z,0.30
2023-02-28T05:14:00.239Z,0.30
2023-02-28T05:16:28.180Z,0.30
2023-02-28T05:18:56.332Z,0.30
2023-02-28T05:21:28.722Z,0.30
2023-02-28T05:23:57.888Z,0.40
2023-02-28T05:26:26.550Z,0.40
2023-02-28T05:28:54.519Z,0.40
2023-02-28T05:31:23.817Z,0.30
2023-02-28T05:33:52.318Z,0.30
2023-02-28T05:36:20.531Z,0.40
2023-02-28T05:38:49.703Z,0.30
2023-02-28T05:41:20.202Z,0.30
2023-02-28T05:43:48.608Z,0.30
2023-02-28T05:46:17.454Z,0.30
2023-02-28T05:48:49.986Z,0.30
2023-02-28T05:51:18.599Z,0.20
2023-02-28T05:53:48.030Z,0.20
2023-02-28T05:56:16.009Z,0.20
2023-02-28T05:58:43.916Z,0.20
2023-02-28T06:01:32.548Z,0.20
2023-02-28T06:04:02.838Z,0.20
2023-02-28T06:06:31.903Z,0.20
2023-02-28T06:08:59.872Z,0.20
2023-02-28T06:11:34.546Z,0.20
2023-02-28T06:14:03.318Z,0.20
2023-02-28T06:16:38.124Z,0.20
2023-02-28T06:19:07.585Z,0.20
2023-02-28T06:21:35.548Z,0.20
2023-02-28T06:24:05.288Z,0.20
2023-02-28T06:26:35.198Z,0.10
2023-02-28T06:29:05.419Z,0.20
2023-02-28T06:31:33.864Z,0.20
2023-02-28T06:34:04.157Z,0.20
2023-02-28T06:36:33.365Z,0.20
2023-02-28T06:39:01.244Z,0.30
2023-02-28T06:41:31.354Z,0.30
2023-02-28T06:44:00.665Z,0.30
2023-02-28T06:46:28.693Z,0.30
2023-02-28T06:48:56.573Z,0.20
2023-02-28T06:51:25.324Z,0.20
2023-02-28T06:53:54.564Z,0.20
2023-02-28T06:56:22.796Z,0.30
2023-02-28T06:58:57.967Z,0.30
2023-02-28T07:01:25.940Z,0.40
2023-02-28T07:03:54.080Z,0.40
2023-02-28T07:06:23.556Z,0.40
2023-02-28T07:08:53.679Z,0.40
2023-02-28T07:11:24.247Z,0.40
2023-02-28T07:13:52.420Z,0.40
2023-02-28T07:16:20.716Z,0.50
2023-02-28T07:18:49.024Z,0.40
2023-02-28T07:21:17.395Z,0.40
2023-02-28T07:23:45.263Z,0.50
2023-02-28T07:26:15.711Z,0.50
2023-02-28T07:28:45.821Z,0.50
2023-02-28T07:31:15.099Z,0.50
2023-02-28T07:33:43.518Z,0.60
2023-02-28T07:36:16.323Z,0.50
2023-02-28T07:38:48.097Z,0.50
2023-02-28T07:41:17.471Z,0.60
2023-02-28T07:43:47.707Z,0.60
2023-02-28T07:46:17.494Z,0.60
2023-02-28T07:48:46.289Z,0.70
2023-02-28T07:51:14.419Z,0.70
2023-02-28T07:53:42.350Z,0.70
2023-02-28T07:56:11.696Z,0.70
2023-02-28T07:58:39.555Z,0.70
2023-02-28T08:01:21.447Z,0.70
2023-02-28T08:03:49.473Z,0.80
2023-02-28T08:06:20.507Z,0.80
2023-02-28T08:08:54.727Z,0.80
2023-02-28T08:11:22.592Z,0.90
2023-02-28T08:13:50.433Z,1.00
2023-02-28T08:16:23.020Z,1.00
2023-02-28T08:18:56.852Z,1.10
2023-02-28T08:21:25.355Z,1.10
2023-02-28T08:23:53.823Z,1.10
2023-02-28T08:26:22.273Z,1.10
2023-02-28T08:28:50.372Z,1.10
2023-02-28T08:31:20.190Z,1.20
2023-02-28T08:33:52.063Z,1.20
2023-02-28T08:36:32.402Z,1.20
2023-02-28T08:39:02.297Z,1.30
2023-02-28T08:41:30.886Z,1.30
2023-02-28T08:43:59.059Z,1.40
2023-02-28T08:46:27.204Z,1.50
2023-02-28T08:48:56.070Z,1.50
2023-02-28T08:51:28.556Z,1.50
2023-02-28T08:53:57.627Z,1.60
2023-02-28T08:56:25.591Z,1.60
2023-02-28T08:58:56.184Z,1.70
2023-02-28T09:01:28.250Z,1.70
2023-02-28T09:03:58.209Z,1.80
2023-02-28T09:06:29.642Z,1.90
2023-02-28T09:09:02.001Z,1.90
2023-02-28T09:11:30.967Z,2.00
2023-02-28T09:14:00.204Z,2.00
2023-02-28T09:16:28.738Z,2.10
2023-02-28T09:18:56.787Z,2.20
2023-02-28T09:21:25.128Z,2.20
2023-02-28T09:23:55.176Z,2.30
2023-02-28T09:26:25.702Z,2.30
2023-02-28T09:28:54.701Z,2.40
2023-02-28T09:31:24.285Z,2.50
2023-02-28T09:33:54.128Z,2.50
2023-02-28T09:36:26.930Z,2.60
2023-02-28T09:39:04.040Z,2.60
2023-02-28T09:41:40.886Z,2.60
2023-02-28T09:44:15.591Z,2.70
2023-02-28T09:46:47.010Z,2.70
2023-02-28T09:49:18.138Z,2.70
2023-02-28T09:51:52.397Z,2.80
2023-02-28T09:54:24.347Z,2.80
2023-02-28T09:56:55.453Z,2.80
2023-02-28T09:59:36.010Z,2.80
2023-02-28T10:02:14.283Z,2.80
2023-02-28T10:04:52.628Z,2.90
2023-02-28T10:07:34.959Z,2.90
2023-02-28T10:10:09.797Z,2.90
2023-02-28T10:12:43.747Z,3.00
2023-02-28T10:15:17.413Z,3.00
2023-02-28T10:17:55.777Z,3.10
2023-02-28T10:20:39.513Z,3.10
2023-02-28T10:23:15.198Z,3.10
2023-02-28T10:25:49.552Z,3.10
2023-02-28T10:28:18.870Z,3.20
2023-02-28T10:30:49.997Z,3.20
2023-02-28T10:33:30.660Z,3.20
2023-02-28T10:35:58.805Z,3.20
2023-02-28T10:38:29.672Z,3.20
2023-02-28T10:41:09.085Z,3.20
2023-02-28T10:43:37.830Z,3.20
2023-02-28T10:46:16.178Z,3.30
2023-02-28T10:48:50.843Z,3.30
2023-02-28T10:51:21.103Z,3.30
2023-02-28T10:54:01.167Z,3.30
2023-02-28T10:56:32.020Z,3.30
2023-02-28T10:59:02.568Z,3.30
2023-02-28T11:01:39.996Z,3.40
2023-02-28T11:04:20.647Z,3.40
2023-02-28T11:06:49.248Z,3.60
2023-02-28T11:09:24.867Z,3.60
2023-02-28T11:11:54.513Z,3.60
2023-02-28T11:14:26.265Z,3.80
2023-02-28T11:16:55.172Z,3.80
2023-02-28T11:19:27.445Z,3.80
2023-02-28T11:21:59.224Z,3.90
2023-02-28T11:24:30.601Z,3.90
2023-02-28T11:26:59.836Z,3.90
2023-02-28T11:29:29.926Z,4.00
2023-02-28T11:32:18.378Z,3.90
2023-02-28T11:34:47.414Z,3.90
2023-02-28T11:37:18.340Z,3.90
2023-02-28T11:39:47.300Z,3.80
2023-02-28T11:42:42.986Z,3.90
2023-02-28T11:45:22.404Z,3.80
2023-02-28T11:47:57.706Z,3.80
2023-02-28T11:50:50.002Z,3.80
2023-02-28T11:53:31.946Z,3.80
2023-02-28T11:56:05.789Z,3.80
2023-02-28T11:58:48.327Z,3.80
2023-02-28T12:01:36.824Z,3.80
2023-02-28T12:04:26.438Z,3.90
2023-02-28T12:07:01.247Z,3.90
2023-02-28T12:09:48.745Z,3.90
2023-02-28T12:12:29.525Z,3.90
2023-02-28T12:15:26.413Z,3.90
2023-02-28T12:18:08.319Z,3.90
2023-02-28T12:20:43.229Z,3.90
2023-02-28T12:23:29.718Z,3.90
2023-02-28T12:26:14.869Z,4.00
2023-02-28T12:28:48.372Z,4.00
2023-02-28T12:31:22.880Z,4.10
2023-02-28T12:33:55.662Z,4.10
2023-02-28T12:36:24.974Z,4.10
2023-02-28T12:38:58.106Z,4.10
2023-02-28T12:41:38.910Z,4.10
2023-02-28T12:44:13.807Z,4.10
2023-02-28T12:46:46.492Z,4.10
2023-02-28T12:49:18.288Z,4.20
2023-02-28T12:51:47.842Z,4.20
2023-02-28T12:54:24.939Z,4.20
2023-02-28T12:57:01.117Z,4.30
2023-02-28T12:59:37.352Z,4.20
2023-02-28T13:02:45.872Z,4.20
2023-02-28T13:06:07.319Z,4.30
2023-02-28T13:09:02.205Z,4.30
2023-02-28T13:11:35.930Z,4.20
2023-02-28T13:14:06.766Z,4.30
2023-02-28T13:16:58.984Z,4.40
2023-02-28T13:19:32.894Z,4.40
2023-02-28T13:22:02.496Z,4.30
2023-02-28T13:24:44.922Z,4.40
2023-02-28T13:27:26.287Z,4.40
2023-02-28T13:29:55.655Z,4.50
2023-02-28T13:32:44.752Z,4.50
2023-02-28T13:35:46.041Z,4.50
2023-02-28T13:38:33.687Z,4.60
2023-02-28T13:41:35.416Z,4.50
2023-02-28T13:44:06.933Z,4.50
2023-02-28T13:46:38.045Z,4.50
2023-02-28T13:49:21.198Z,4.60
2023-02-28T13:51:52.072Z,4.70
2023-02-28T13:54:44.404Z,4.60
2023-02-28T13:57:28.121Z,4.70
2023-02-28T14:00:11.451Z,4.70
2023-02-28T14:03:03.601Z,4.80
2023-02-28T14:05:34.212Z,4.80
2023-02-28T14:08:09.135Z,4.80
2023-02-28T14:10:41.173Z,4.90
2023-02-28T14:13:45.837Z,4.90
2023-02-28T14:16:16.613Z,4.90
2023-02-28T14:18:52.392Z,4.90
2023-02-28T14:21:27.027Z,5.00
2023-02-28T14:24:28.491Z,5.00
2023-02-28T14:27:10.029Z,5.00
2023-02-28T14:30:10.121Z,5.00
2023-02-28T14:32:46.506Z,5.00
2023-02-28T14:35:24.194Z,5.10
2023-02-28T14:37:52.371Z,5.00
2023-02-28T14:40:27.289Z,5.10
2023-02-28T14:42:58.491Z,5.10
2023-02-28T14:45:26.554Z,5.10
2023-02-28T14:47:56.692Z,5.10
2023-02-28T14:50:29.987Z,5.00
2023-02-28T14:52:58.249Z,5.10
2023-02-28T14:55:30.905Z,5.10
2023-02-28T14:58:00.416Z,5.10
2023-02-28T15:00:30.779Z,5.10
2023-02-28T15:03:00.300Z,5.20
2023-02-28T15:05:31.557Z,5.10
2023-02-28T15:08:08.227Z,5.10
2023-02-28T15:10:37.569Z,5.10
2023-02-28T15:13:09.044Z,5.10
2023-02-28T15:16:07.969Z,5.10
2023-02-28T15:18:45.125Z,5.10
2023-02-28T15:21:17.222Z,5.20
2023-02-28T15:23:52.066Z,5.10
2023-02-28T15:26:24.667Z,5.20
2023-02-28T15:28:56.631Z,5.20
2023-02-28T15:31:36.165Z,5.20
2023-02-28T15:34:15.448Z,5.20
2023-02-28T15:36:44.377Z,5.20
2023-02-28T15:39:21.860Z,5.20
2023-02-28T15:41:51.285Z,5.20
2023-02-28T15:44:27.913Z,5.20
2023-02-28T15:47:00.818Z,5.20
2023-02-28T15:49:29.987Z,5.20
2023-02-28T15:52:01.560Z,5.20
2023-02-28T15:54:32.672Z,5.20
2023-02-28T15:57:09.825Z,5.20
2023-02-28T15:59:38.750Z,5.20
2023-02-28T16:02:18.832Z,5.20
2023-02-28T16:05:05.104Z,5.20
2023-02-28T16:07:32.991Z,5.20
2023-02-28T16:10:01.350Z,5.10
2023-02-28T16:12:32.324Z,5.10
2023-02-28T16:15:03.865Z,5.10
2023-02-28T16:17:36.156Z,5.00
2023-02-28T16:20:15.244Z,5.00
2023-02-28T16:22:43.907Z,5.00
2023-02-28T16:25:15.050Z,5.00
2023-02-28T16:27:46.013Z,5.00
2023-02-28T16:30:21.225Z,4.90
2023-02-28T16:32:49.574Z,4.90
2023-02-28T16:35:18.863Z,4.90
2023-02-28T16:37:47.304Z,4.90
2023-02-28T16:40:18.093Z,5.00
2023-02-28T16:42:48.629Z,5.00
2023-02-28T16:45:22.218Z,5.00
2023-02-28T16:47:50.344Z,5.00
2023-02-28T16:50:21.566Z,5.00
2023-02-28T16:52:50.418Z,5.10
2023-02-28T16:55:18.312Z,5.10
2023-02-28T16:58:06.063Z,5.10
2023-02-28T17:00:35.074Z,5.20
2023-02-28T17:03:05.706Z,5.20
2023-02-28T17:05:39.028Z,5.20
2023-02-28T17:08:06.990Z,5.30
2023-02-28T17:10:35.003Z,5.30
2023-02-28T17:13:13.165Z,5.30
2023-02-28T17:15:43.891Z,5.30
2023-02-28T17:18:16.851Z,5.30
2023-02-28T17:20:44.891Z,5.30
2023-02-28T17:23:13.228Z,5.30
2023-02-28T17:25:42.190Z,5.20
2023-02-28T17:28:11.211Z,5.30
2023-02-28T17:30:39.409Z,5.30
2023-02-28T17:33:08.694Z,5.30
2023-02-28T17:35:36.949Z,5.30
2023-02-28T17:38:04.839Z,5.20
2023-02-28T17:40:34.833Z,5.30
2023-02-28T17:43:03.788Z,5.20
2023-02-28T17:45:31.946Z,5.20
2023-02-28T17:47:59.917Z,5.20
2023-02-28T17:50:29.440Z,5.20
2023-02-28T17:52:57.357Z,5.10
2023-02-28T17:55:25.221Z,5.10
2023-02-28T17:57:53.070Z,5.10
2023-02-28T18:00:24.997Z,5.10
2023-02-28T18:02:53.014Z,5.10
2023-02-28T18:05:20.893Z,5.00
2023-02-28T18:07:50.101Z,5.00
2023-02-28T18:10:21.030Z,5.00
2023-02-28T18:12:49.419Z,5.00
2023-02-28T18:15:23.013Z,5.00
2023-02-28T18:17:51.637Z,4.90
2023-02-28T18:20:20.577Z,4.90
2023-02-28T18:22:50.104Z,4.90
2023-02-28T18:25:18.081Z,4.80
2023-02-28T18:27:58.137Z,4.80
2023-02-28T18:30:28.832Z,4.80
2023-02-28T18:32:58.058Z,4.70
2023-02-28T18:35:35.681Z,4.70
2023-02-28T18:38:10.064Z,4.70
2023-02-28T18:40:38.440Z,4.70
2023-02-28T18:43:06.942Z,4.60
2023-02-28T18:45:37.503Z,4.60
2023-02-28T18:48:05.854Z,4.60
2023-02-28T18:50:33.950Z,4.50
2023-02-28T18:53:03.253Z,4.50
2023-02-28T18:55:34.197Z,4.40
2023-02-28T18:58:02.166Z,4.40
2023-02-28T19:00:31.513Z,4.40
2023-02-28T19:03:01.977Z,4.30
2023-02-28T19:05:33.453Z,4.20
2023-02-28T19:08:02.162Z,4.20
2023-02-28T19:10:30.192Z,4.10
2023-02-28T19:12:59.428Z,4.10
2023-02-28T19:15:27.490Z,4.10
2023-02-28T19:17:55.371Z,4.00
2023-02-28T19:20:23.404Z,3.90
2023-02-28T19:22:51.884Z,3.90
2023-02-28T19:25:20.172Z,3.80
2023-02-28T19:27:53.118Z,3.80
2023-02-28T19:30:22.507Z,3.70
2023-02-28T19:32:51.238Z,3.70
2023-02-28T19:35:19.218Z,3.70
2023-02-28T19:37:47.121Z,3.70
2023-02-28T19:40:15.371Z,3.70
2023-02-28T19:42:43.239Z,3.70
2023-02-28T19:45:14.682Z,3.60
2023-02-28T19:47:44.630Z,3.60
2023-02-28T19:50:12.722Z,3.60
2023-02-28T19:55:10.111Z,3.60
2023-02-28T19:57:38.063Z,3.50
2023-02-28T20:00:07.149Z,3.50
2023-02-28T20:02:40.727Z,3.50
2023-02-28T20:05:10.953Z,3.40
2023-02-28T20:07:38.840Z,3.40
2023-02-28T20:10:07.634Z,3.40
2023-02-28T20:12:35.530Z,3.40
2023-02-28T20:15:06.423Z,3.40
2023-02-28T20:17:34.401Z,3.30
2023-02-28T20:20:03.600Z,3.30
2023-02-28T20:22:38.259Z,3.30
2023-02-28T20:25:08.036Z,3.30
2023-02-28T20:27:36.122Z,3.30
2023-02-28T20:30:04.692Z,3.20
2023-02-28T20:32:33.532Z,3.20
2023-02-28T20:35:01.425Z,3.20
2023-02-28T20:37:29.560Z,3.20
2023-02-28T20:39:59.062Z,3.10
2023-02-28T20:42:26.926Z,3.10
2023-02-28T20:44:54.796Z,3.10
2023-02-28T20:47:22.914Z,3.10
2023-02-28T20:49:50.778Z,3.10
2023-02-28T20:52:18.714Z,3.00
2023-02-28T20:54:46.681Z,3.00
2023-02-28T20:57:15.894Z,2.90
2023-02-28T20:59:43.821Z,2.90
2023-02-28T21:02:15.646Z,2.90
2023-02-28T21:04:43.635Z,2.80
2023-02-28T21:07:11.559Z,2.80
2023-02-28T21:09:39.434Z,2.80
2023-02-28T21:12:07.520Z,2.80
2023-02-28T21:14:36.750Z,2.80
2023-02-28T21:17:08.400Z,2.80
2023-02-28T21:19:36.556Z,2.70
2023-02-28T21:22:04.858Z,2.70
2023-02-28T21:24:33.016Z,2.70
2023-02-28T21:27:02.130Z,2.70
2023-02-28T21:29:30.019Z,2.70
2023-02-28T21:31:59.753Z,2.70
2023-02-28T21:34:28.444Z,2.70
2023-02-28T21:37:12.022Z,2.70
2023-02-28T21:39:40.086Z,2.60
2023-02-28T21:42:07.988Z,2.60
2023-02-28T21:44:35.850Z,2.60
2023-02-28T21:47:05.443Z,2.60
2023-02-28T21:49:33.401Z,2.60
2023-02-28T21:52:01.473Z,2.70
2023-02-28T21:54:29.304Z,2.60
2023-02-28T21:56:59.673Z,2.60
2023-02-28T21:59:27.839Z,2.60
2023-02-28T22:01:55.891Z,2.60
2023-02-28T22:04:25.373Z,2.60
2023-02-28T22:06:54.998Z,2.60
2023-02-28T22:09:23.357Z,2.60
2023-02-28T22:11:51.618Z,2.60
2023-02-28T22:14:19.550Z,2.60
2023-02-28T22:16:53.889Z,2.60
2023-02-28T22:19:23.172Z,2.50
2023-02-28T22:21:53.777Z,2.50
2023-02-28T22:24:24.328Z,2.50
2023-02-28T22:26:53.264Z,2.60
2023-02-28T22:29:21.285Z,2.60
2023-02-28T22:31:49.301Z,2.60
2023-02-28T22:34:17.216Z,2.60
2023-02-28T22:36:45.334Z,2.60
2023-02-28T22:39:14.871Z,2.50
2023-02-28T22:41:42.758Z,2.50
2023-02-28T22:44:11.799Z,2.40
2023-02-28T22:46:40.785Z,2.40
2023-02-28T22:49:08.748Z,2.40
2023-02-28T22:51:36.725Z,2.40
2023-02-28T22:54:05.194Z,2.30
2023-02-28T22:56:35.017Z,2.30
2023-02-28T22:59:03.669Z,2.30
2023-02-28T23:01:33.763Z,2.30
2023-02-28T23:04:02.755Z,2.30
2023-02-28T23:06:32.906Z,2.30
2023-02-28T23:09:02.950Z,2.40
2023-02-28T23:11:32.898Z,2.40
2023-02-28T23:14:02.426Z,2.40
2023-02-28T23:16:32.394Z,2.40
2023-02-28T23:19:04.779Z,2.40
2023-02-28T23:21:33.417Z,2.40
2023-02-28T23:24:03.271Z,2.50
2023-02-28T23:26:32.953Z,2.50
2023-02-28T23:29:02.672Z,2.50
2023-02-28T23:31:30.872Z,2.50
2023-02-28T23:33:59.445Z,2.50
2023-02-28T23:36:29.159Z,2.50
2023-02-28T23:38:57.926Z,2.60
2023-02-28T23:41:27.084Z,2.60
2023-02-28T23:43:56.217Z,2.60
2023-02-28T23:46:25.762Z,2.60
2023-02-28T23:48:53.857Z,2.60
2023-02-28T23:51:22.981Z,2.50
2023-02-28T23:53:53.063Z,2.50
2023-02-28T23:56:23.852Z,2.50
2023-02-28T23:58:52.508Z,2.50
